Terminal Aerodrome Forecast
Issued by NWS

Home | Current Version | Previous Version | Text Only | Print | Product List | Glossary On
Versions: 1 2 3 4 5 6 7 8 9 10 11 12 13 14 15 16 17 18 19 20 21 22
386
FTUS42 KTAE 061735
TAFDHN
TAF
KDHN 061735Z 0618/0718 26014G22KT P6SM SCT030
     FM062100 26010KT P6SM SCT020
     FM070400 34005KT P6SM OVC015
     FM071500 26005KT P6SM BKN020=

USA.gov is the U.S. government's official web portal to all federal, state and local government web resources and services.